Terminal Aerodrome Forecast
Issued by NWS

Home | Current Version | Previous Version | Graphics & Text | Print | Product List | Glossary On
Versions: 1 2 3 4 5 6 7 8 9 10 11 12 13 14 15 16 17
000
FTUS43 KGLD 272327
TAFMCK
TAF
KMCK 272327Z 2800/2824 08010KT P6SM FEW250
     FM280600 11006KT P6SM BKN200
     FM280700 10005KT P6SM BKN200
     FM281100 04005KT P6SM SCT250
     FM281700 10008KT P6SM BKN200
     FM282100 09013KT P6SM VCTS BKN035CB=

USA.gov is the U.S. government's official web portal to all federal, state and local government web resources and services.